2005 NABI (2005241N15155)


On this page: IBTrACS data - Map and Plots - Positions - Intensities - Original source data

Summary

Start Aug 28
End Sep 9
Basin WP
LMI 140 kt
Sources jtwc_wp
tokyo
cma
hko
In WMO? Yes
Previous storm 2005 LEE (NA)
Previous in basin 2005 TALIM (WP)
Concurrent storms 2005 MAWAR (WP)
2005 KATRINA (NA)
2005 TALIM (WP)
2005 IRWIN (EP)
2005 LEE (NA)
2005 NABI (WP)
2005 MARIA (NA)
2005 KHANUN (WP)
2005 OPHELIA (NA)
2005 NATE (NA)
Next in basin 2005 KHANUN (WP)
Next storm 2005 MARIA (NA)

top of page IBTrACS Data: File Access

top of page HURSAT Data: File Access

Image of storm

top of page Plots:

Map of storm track will not appear if FTP is down
Time series of cyclone Maximum Sustained Wind will not appear if FTP is down
Time series of cyclone Minimum Central Pressure will not appear if FTP is down

top of page Track Data:Position

jtwc_wp tokyo cma hko
Date Lat Lon Lat Lon Lat Lon Lat Lon
2005-08-28 18:00:00 15.1 154.8
2005-08-29 00:00:00 15.0 154.0 14.6 154.0 14.6 154.0
2005-08-29 06:00:00 15.1 153.2 14.9 153.4 14.9 153.4 14.9 153.4
2005-08-29 12:00:00 15.1 152.3 15.0 152.3 15.0 152.3 15.0 152.3
2005-08-29 18:00:00 15.1 151.2 15.1 151.2 15.1 151.2 15.1 151.4
2005-08-30 00:00:00 15.0 150.1 15.1 150.2 15.1 150.2 15.2 150.4
2005-08-30 06:00:00 14.9 149.0 15.1 149.2 15.1 149.2 15.1 149.2
2005-08-30 12:00:00 15.0 148.0 14.8 147.8 14.9 147.9 14.8 148.0
2005-08-30 18:00:00 15.2 147.1 15.2 147.1 15.1 147.1 15.1 147.1
2005-08-31 00:00:00 15.5 146.2 15.6 146.3 15.6 146.3 15.6 146.3
2005-08-31 06:00:00 16.1 145.0 16.4 144.9 16.4 145.0 16.5 145.0
2005-08-31 12:00:00 16.6 143.7 16.6 143.7 16.7 143.7 16.6 143.7
2005-08-31 18:00:00 16.9 142.5 16.7 142.6 16.7 142.6 16.8 142.6
2005-09-01 00:00:00 17.4 141.5 17.3 141.5 17.3 141.5 17.2 141.5
2005-09-01 06:00:00 17.8 140.4 17.7 140.7 17.7 140.7 17.7 140.6
2005-09-01 12:00:00 18.4 139.5 18.3 139.8 18.3 139.8 18.3 139.7
2005-09-01 18:00:00 18.8 138.5 18.8 138.5 18.8 138.5 18.8 138.5
2005-09-02 00:00:00 19.2 137.5 19.2 137.5 19.2 137.5 19.3 137.5
2005-09-02 06:00:00 19.7 136.6 19.6 136.8 19.6 136.8 19.6 136.8
2005-09-02 12:00:00 20.2 135.9 20.1 136.1 20.1 136.1 20.1 136.1
2005-09-02 18:00:00 20.7 135.2 20.8 135.3 20.8 135.3 20.7 135.3
2005-09-03 00:00:00 21.5 134.5 21.4 134.6 21.4 134.5 21.4 134.6
2005-09-03 06:00:00 22.5 133.9 22.3 134.0 22.3 133.9 22.3 133.9
2005-09-03 12:00:00 23.3 133.2 23.2 133.2 23.2 133.2 23.1 133.2
2005-09-03 18:00:00 24.1 132.5 24.0 132.6 24.1 132.6 24.0 132.6
jtwc_wp tokyo cma hko
2005-09-04 00:00:00 25.0 132.1 24.8 132.2 24.8 132.1 24.8 132.2
2005-09-04 06:00:00 26.0 131.6 26.1 131.6 26.1 131.6 26.0 131.5
2005-09-04 12:00:00 26.7 131.1 26.6 131.2 26.6 131.2 26.6 131.2
2005-09-04 18:00:00 27.3 130.9 27.1 131.0 27.1 131.0 27.2 130.9
2005-09-05 00:00:00 27.9 130.8 27.9 130.7 27.9 130.7 28.0 130.7
2005-09-05 06:00:00 28.7 130.5 28.8 130.4 28.8 130.4 28.8 130.4
2005-09-05 12:00:00 29.5 130.3 29.4 130.2 29.4 130.2 29.4 130.3
2005-09-05 18:00:00 30.4 130.1 30.2 130.2 30.2 130.2 30.3 130.2
2005-09-06 00:00:00 31.5 130.1 31.4 130.0 31.4 130.1 31.3 130.1
2005-09-06 06:00:00 33.1 130.2 33.0 130.2 33.0 130.2 33.0 130.2
2005-09-06 12:00:00 34.6 131.0 34.2 130.8 34.2 130.8 34.2 130.7
2005-09-06 18:00:00 36.1 132.1 36.0 131.8 36.0 131.8 36.0 132.0
2005-09-07 00:00:00 37.5 133.9 37.5 133.0 37.5 133.0 37.6 134.4
2005-09-07 06:00:00 38.8 135.2 38.8 135.2 39.0 135.8
2005-09-07 12:00:00 41.0 138.7 41.0 138.7 40.9 138.7
2005-09-07 18:00:00 44.0 141.1 44.0 141.1 44.1 141.1
2005-09-08 00:00:00 46.0 145.0 46.0 145.0 46.1 145.0
2005-09-08 06:00:00 47.4 147.9 47.4 147.9
2005-09-08 12:00:00 48.9 150.6
2005-09-08 18:00:00 49.8 154.2
2005-09-09 00:00:00 49.9 157.6
2005-09-09 06:00:00 49.8 162.2
2005-09-09 12:00:00 49.9 166.4
2005-09-09 18:00:00 49.6 170.5

top of pageTrack Data:Intensity

jtwc_wp tokyo cma hko
Date Wind Pres Wind Pres Wind Pres Wind Pres
2005-08-28 18:00:00 15. 1006.
2005-08-29 00:00:00 25. 1002. 1004. 29. 1004.
2005-08-29 06:00:00 25. 1002. 1000. 29. 1000. 30. 998.
2005-08-29 12:00:00 30. 1000. 40. 994. 39. 995. 35. 994.
2005-08-29 18:00:00 35. 997. 45. 990. 45. 990. 40. 990.
2005-08-30 00:00:00 45. 991. 50. 985. 49. 990. 45. 985.
2005-08-30 06:00:00 55. 984. 55. 980. 54. 985. 55. 975.
2005-08-30 12:00:00 65. 976. 60. 975. 58. 980. 60. 970.
2005-08-30 18:00:00 75. 967. 70. 965. 68. 970. 65. 965.
2005-08-31 00:00:00 90. 954. 80. 950. 78. 960. 75. 955.
2005-08-31 06:00:00 90. 954. 85. 945. 78. 960. 85. 945.
2005-08-31 12:00:00 105. 938. 90. 935. 87. 950. 90. 940.
2005-08-31 18:00:00 105. 938. 90. 935. 87. 950. 95. 935.
2005-09-01 00:00:00 110. 933. 90. 935. 97. 940. 100. 930.
2005-09-01 06:00:00 120. 922. 90. 935. 97. 940. 105. 925.
2005-09-01 12:00:00 130. 910. 95. 930. 107. 935. 110. 920.
2005-09-01 18:00:00 140. 898. 95. 930. 107. 935. 120. 910.
2005-09-02 00:00:00 140. 898. 95. 930. 117. 920. 120. 910.
2005-09-02 06:00:00 140. 898. 95. 925. 117. 920. 120. 910.
2005-09-02 12:00:00 130. 910. 95. 925. 107. 935. 120. 910.
2005-09-02 18:00:00 130. 910. 95. 930. 107. 935. 115. 915.
2005-09-03 00:00:00 130. 910. 90. 935. 107. 935. 110. 920.
2005-09-03 06:00:00 120. 922. 90. 935. 107. 935. 110. 920.
2005-09-03 12:00:00 115. 927. 90. 935. 97. 940. 110. 920.
2005-09-03 18:00:00 105. 938. 85. 940. 97. 940. 110. 920.
jtwc_wp tokyo cma hko
2005-09-04 00:00:00 105. 938. 85. 940. 97. 940. 110. 920.
2005-09-04 06:00:00 105. 938. 85. 935. 87. 950. 105. 925.
2005-09-04 12:00:00 105. 938. 85. 935. 87. 950. 105. 925.
2005-09-04 18:00:00 105. 938. 85. 935. 87. 950. 105. 925.
2005-09-05 00:00:00 105. 938. 85. 935. 87. 950. 100. 930.
2005-09-05 06:00:00 115. 927. 85. 935. 87. 950. 100. 930.
2005-09-05 12:00:00 115. 927. 85. 935. 87. 950. 95. 935.
2005-09-05 18:00:00 110. 933. 80. 945. 87. 950. 95. 935.
2005-09-06 00:00:00 95. 949. 80. 950. 78. 960. 85. 945.
2005-09-06 06:00:00 80. 963. 65. 965. 68. 970. 75. 955.
2005-09-06 12:00:00 75. 967. 65. 970. 68. 970. 65. 965.
2005-09-06 18:00:00 55. 984. 65. 975. 64. 975. 60. 970.
2005-09-07 00:00:00 50. 987. 55. 980. 54. 985. 55. 975.
2005-09-07 06:00:00 50. 985. 49. 985. 50. 980.
2005-09-07 12:00:00 50. 985. 49. 985. 50. 980.
2005-09-07 18:00:00 50. 985. 49. 985. 50. 980.
2005-09-08 00:00:00 50. 985. 49. 985. 50. 980.
2005-09-08 06:00:00 986. 29. 986.
2005-09-08 12:00:00 984.
2005-09-08 18:00:00 976.
2005-09-09 00:00:00 976.
2005-09-09 06:00:00 976.
2005-09-09 12:00:00 978.
2005-09-09 18:00:00 978.

top of page Links to source data

Source Source file Format
jtwc_wp bwp142005.txt ATCF
tokyo bst_all.txt:Line=54987:NABI:514 JMA text table
cma CH2005BST.txt:Storm=14:Nabi CMA text table
hko tc-besttrack-data.txt:Line=31568:NABI HKO Text table